Time;durP1;ratioP1;P1;durP2;ratioP2;P2;SDS_P1;SDS_P2;PMS_P1;PMS_P2;Temp;Humidity;BMP_temperature;BMP_pressure;BME280_temperature;BME280_humidity;BME280_pressure;Samples;Min_cycle;Max_cycle;Signal;HPM_P1;HPM_P2
2023/05/25 00:03:27;;;;;;;3.70;2.00;;;25.20;56.50;;;;;;10481343;28;20500;-24
2023/05/25 00:08:29;;;;;;;3.70;2.10;;;25.10;56.30;;;;;;10488053;28;20088;-26
2023/05/25 00:13:32;;;;;;;3.88;2.28;;;25.00;56.40;;;;;;10475472;28;20406;-23
2023/05/25 00:18:36;;;;;;;4.32;2.47;;;25.00;56.00;;;;;;10488638;28;20056;-23
2023/05/25 00:23:38;;;;;;;5.18;1.73;;;24.90;56.50;;;;;;10479408;28;20049;-23
2023/05/25 00:28:41;;;;;;;;;;;24.80;56.40;;;;;;10471278;28;20708;-29
2023/05/25 00:33:43;;;;;;;3.15;2.22;;;24.80;56.50;;;;;;10490287;28;20007;-23
2023/05/25 00:38:45;;;;;;;;;;;24.80;56.70;;;;;;10490431;28;20461;-23
2023/05/25 00:43:48;;;;;;;4.00;1.75;;;24.70;56.40;;;;;;10483121;28;20009;-23
2023/05/25 00:48:54;;;;;;;5.25;2.00;;;24.60;57.00;;;;;;10485953;28;20076;-23
2023/05/25 00:53:56;;;;;;;2.92;1.50;;;24.60;56.20;;;;;;10481487;28;20049;-23
2023/05/25 00:59:06;;;;;;;3.63;1.90;;;24.50;56.80;;;;;;10482260;28;20419;-24
2023/05/25 01:04:09;;;;;;;3.88;1.80;;;24.40;56.60;;;;;;10491570;28;20043;-24
2023/05/25 01:09:15;;;;;;;2.83;1.70;;;24.40;56.30;;;;;;10476718;28;20044;-23
2023/05/25 01:14:21;;;;;;;2.50;1.33;;;24.40;56.70;;;;;;10489811;28;20073;-24
2023/05/25 01:19:22;;;;;;;2.33;1.23;;;24.40;56.60;;;;;;10480004;28;20056;-23
2023/05/25 01:24:31;;;;;;;;;;;24.30;56.70;;;;;;10486721;28;20052;-24
2023/05/25 01:29:34;;;;;;;3.65;2.10;;;24.20;56.50;;;;;;10484955;28;19928;-22
2023/05/25 01:34:36;;;;;;;4.85;2.22;;;24.10;56.30;;;;;;10483916;28;20454;-23
2023/05/25 01:39:40;;;;;;;2.60;1.50;;;24.10;56.60;;;;;;10483798;28;20148;-24
2023/05/25 01:44:42;;;;;;;4.03;2.15;;;24.00;56.80;;;;;;10471920;28;20076;-24
2023/05/25 01:49:51;;;;;;;5.00;2.28;;;24.00;56.10;;;;;;10480411;28;20052;-23
2023/05/25 01:55:00;;;;;;;2.78;1.80;;;23.90;56.30;;;;;;10479227;28;20068;-23
2023/05/25 02:00:03;;;;;;;3.08;1.75;;;23.80;57.10;;;;;;10483121;28;20052;-23
2023/05/25 02:05:06;;;;;;;4.10;2.00;;;23.70;56.20;;;;;;10480571;28;20047;-23
2023/05/25 02:10:10;;;;;;;4.57;1.92;;;23.70;56.60;;;;;;10484792;28;20036;-23
2023/05/25 02:15:12;;;;;;;3.30;1.85;;;23.80;56.80;;;;;;10481704;28;20048;-23
2023/05/25 02:20:14;;;;;;;4.28;1.83;;;23.70;56.70;;;;;;10479509;28;20082;-24
2023/05/25 02:25:17;;;;;;;;;;;23.50;56.30;;;;;;10479732;28;20110;-23
2023/05/25 02:30:18;;;;;;;2.92;1.67;;;23.50;56.70;;;;;;10485838;28;19959;-26
2023/05/25 02:35:20;;;;;;;4.53;1.75;;;23.50;56.60;;;;;;10494489;28;20409;-22
2023/05/25 02:40:23;;;;;;;2.97;1.48;;;23.40;56.70;;;;;;10492824;28;20135;-24
2023/05/25 02:45:25;;;;;;;2.30;1.48;;;23.40;56.50;;;;;;10493301;28;20131;-24
2023/05/25 02:50:27;;;;;;;2.78;1.70;;;23.40;56.70;;;;;;10492238;28;20638;-23
2023/05/25 02:55:30;;;;;;;2.80;1.92;;;23.30;56.90;;;;;;10480563;28;20542;-23
2023/05/25 03:15:30;;;;;;;3.63;1.50;;;23.30;56.00;;;;;;10558809;27;20132;-23
2023/05/25 03:20:33;;;;;;;2.20;1.30;;;23.00;56.60;;;;;;10564814;28;20131;-22
2023/05/25 03:25:35;;;;;;;2.90;1.70;;;23.00;56.80;;;;;;10565284;28;20143;-24
2023/05/25 03:30:38;;;;;;;2.80;1.67;;;23.00;57.30;;;;;;10557093;28;20047;-22
2023/05/25 03:35:40;;;;;;;4.15;1.60;;;22.90;56.90;;;;;;10560495;28;20131;-23
2023/05/25 03:40:42;;;;;;;;;;;22.80;57.00;;;;;;10561683;28;20044;-23
2023/05/25 03:45:45;;;;;;;2.43;1.60;;;22.80;57.00;;;;;;10572502;28;20022;-24
2023/05/25 03:50:47;;;;;;;2.83;1.20;;;22.80;56.70;;;;;;10561524;28;20063;-23
2023/05/25 03:55:50;;;;;;;;;;;22.70;56.90;;;;;;10565179;28;20062;-23
2023/05/25 04:00:55;;;;;;;2.75;1.60;;;22.70;57.20;;;;;;10565486;28;19920;-23
2023/05/25 04:05:57;;;;;;;4.85;1.85;;;22.60;57.30;;;;;;10571647;28;20040;-24
2023/05/25 04:10:59;;;;;;;1.50;1.38;;;22.60;57.20;;;;;;10559979;28;20056;-23
2023/05/25 04:16:03;;;;;;;2.28;1.48;;;22.70;57.10;;;;;;10560192;28;20130;-23
2023/05/25 04:21:05;;;;;;;1.98;1.30;;;22.70;57.10;;;;;;10562742;28;20101;-24
2023/05/25 04:26:09;;;;;;;2.25;1.48;;;22.50;57.00;;;;;;10532334;28;20442;-23
2023/05/25 04:31:12;;;;;;;3.15;1.38;;;22.60;56.80;;;;;;10531755;28;20055;-24
2023/05/25 04:36:14;;;;;;;2.38;1.50;;;22.60;57.50;;;;;;10542309;28;20048;-25
2023/05/25 04:41:16;;;;;;;2.25;1.10;;;22.60;57.20;;;;;;10535396;28;20064;-24
2023/05/25 04:46:19;;;;;;;2.30;1.17;;;22.60;57.20;;;;;;10512447;28;20044;-24
2023/05/25 04:51:21;;;;;;;3.90;1.25;;;22.50;57.20;;;;;;10531389;28;20055;-23
2023/05/25 04:56:24;;;;;;;2.40;1.00;;;22.50;57.40;;;;;;10529718;28;20047;-24
2023/05/25 05:01:27;;;;;;;4.10;1.38;;;22.50;57.30;;;;;;10525599;28;20086;-23
2023/05/25 05:06:31;;;;;;;3.35;1.50;;;22.50;57.50;;;;;;10518686;28;20067;-24
2023/05/25 05:11:32;;;;;;;2.03;1.42;;;22.50;57.30;;;;;;10531183;28;20064;-24
2023/05/25 05:16:36;;;;;;;;;;;22.50;57.60;;;;;;10519541;28;20131;-24
2023/05/25 05:21:38;;;;;;;3.10;1.48;;;22.50;57.40;;;;;;10521856;28;20284;-24
2023/05/25 05:26:40;;;;;;;1.15;0.90;;;22.40;57.20;;;;;;10522502;28;20911;-24
2023/05/25 05:31:43;;;;;;;4.38;1.30;;;22.30;57.40;;;;;;10514904;28;20044;-23
2023/05/25 05:36:45;;;;;;;3.35;1.80;;;22.30;57.20;;;;;;10509581;28;20059;-23
2023/05/25 05:41:47;;;;;;;3.17;1.63;;;22.30;57.30;;;;;;10514877;28;20510;-24
2023/05/25 05:46:50;;;;;;;3.65;1.70;;;22.30;57.20;;;;;;10528550;28;20159;-22
2023/05/25 05:51:52;;;;;;;4.45;1.67;;;22.30;57.20;;;;;;10521353;28;20482;-24
2023/05/25 05:56:54;;;;;;;2.45;1.38;;;22.40;57.00;;;;;;10516387;28;20142;-24
2023/05/25 06:01:57;;;;;;;3.55;1.50;;;22.40;57.20;;;;;;10509519;28;20566;-23
2023/05/25 06:06:59;;;;;;;2.97;1.65;;;22.40;57.30;;;;;;10511265;28;20109;-25
2023/05/25 06:12:02;;;;;;;3.47;1.50;;;22.40;57.00;;;;;;10523877;28;20134;-24
2023/05/25 06:17:05;;;;;;;3.47;1.40;;;22.40;57.20;;;;;;10524606;28;20510;-24
2023/05/25 06:22:07;;;;;;;3.63;1.83;;;22.40;57.20;;;;;;10521531;28;20709;-24
2023/05/25 06:27:09;;;;;;;3.83;1.90;;;22.40;57.20;;;;;;10519146;28;20072;-24
2023/05/25 06:32:12;;;;;;;3.83;1.85;;;22.40;57.40;;;;;;10519806;28;20558;-25
2023/05/25 06:37:14;;;;;;;3.08;1.70;;;22.40;57.60;;;;;;10521166;28;20102;-23
2023/05/25 06:42:16;;;;;;;3.65;1.73;;;22.40;57.30;;;;;;10516882;28;20058;-24
2023/05/25 06:47:19;;;;;;;3.75;1.70;;;22.40;57.10;;;;;;10513896;28;20037;-24
2023/05/25 06:52:21;;;;;;;6.90;1.75;;;22.50;57.00;;;;;;10514478;28;20044;-24
2023/05/25 06:57:23;;;;;;;3.05;1.70;;;22.40;56.90;;;;;;10515058;28;20656;-24
2023/05/25 07:02:26;;;;;;;3.35;1.75;;;22.60;56.80;;;;;;10523154;28;20049;-24
2023/05/25 07:07:28;;;;;;;5.05;1.90;;;22.80;57.10;;;;;;10523862;28;20127;-24
2023/05/25 07:12:30;;;;;;;2.40;1.42;;;22.60;57.30;;;;;;10515793;28;20076;-24
2023/05/25 07:17:35;;;;;;;;;;;22.80;56.90;;;;;;10511362;28;20482;-24
2023/05/25 07:22:37;;;;;;;3.50;1.40;;;22.60;57.70;;;;;;10523447;28;19924;-24
2023/05/25 07:27:38;;;;;;;3.78;1.30;;;23.30;56.00;;;;;;10529637;28;20655;-23
2023/05/25 07:32:42;;;;;;;;;;;23.30;56.20;;;;;;10517699;28;20434;-24
2023/05/25 07:37:43;;;;;;;2.38;1.35;;;23.20;56.10;;;;;;10521992;28;20284;-24
2023/05/25 07:42:45;;;;;;;2.38;1.42;;;23.30;56.30;;;;;;10526268;28;20531;-24
2023/05/25 07:47:48;;;;;;;3.78;1.52;;;23.40;56.10;;;;;;10530417;28;20136;-24
2023/05/25 07:52:50;;;;;;;2.95;1.10;;;23.90;58.30;;;;;;10521376;28;20550;-24
2023/05/25 07:57:53;;;;;;;2.58;1.33;;;23.70;56.30;;;;;;10523462;28;20052;-24
2023/05/25 08:02:56;;;;;;;1.98;1.25;;;23.50;56.30;;;;;;10532287;28;20044;-25
2023/05/25 08:07:58;;;;;;;1.83;1.33;;;23.50;56.50;;;;;;10534283;28;20131;-25
2023/05/25 08:13:00;;;;;;;;;;;23.50;56.40;;;;;;10533466;28;20052;-24
2023/05/25 08:18:03;;;;;;;3.47;1.20;;;23.60;56.20;;;;;;10522888;28;20318;-24
2023/05/25 08:23:05;;;;;;;2.30;1.20;;;23.60;56.00;;;;;;10529832;28;20051;-24
2023/05/25 08:28:07;;;;;;;3.83;1.70;;;23.50;56.40;;;;;;10541758;28;20051;-24
2023/05/25 08:33:11;;;;;;;2.40;1.42;;;23.50;56.20;;;;;;10540131;28;20072;-24
2023/05/25 08:38:13;;;;;;;5.40;1.90;;;23.60;56.00;;;;;;10538707;28;20064;-24
2023/05/25 08:43:15;;;;;;;;;;;22.30;58.60;;;;;;10522554;28;20519;-24
2023/05/25 08:48:21;;;;;;;6.07;2.20;;;22.00;60.10;;;;;;10529347;28;20563;-25
2023/05/25 08:53:23;;;;;;;4.20;1.80;;;22.40;59.40;;;;;;10518647;28;20545;-24
2023/05/25 08:58:28;;;;;;;;;;;22.00;60.40;;;;;;10537286;28;20126;-24
2023/05/25 09:03:33;;;;;;;4.55;1.92;;;22.70;58.20;;;;;;10531327;28;19971;-24
2023/05/25 09:08:38;;;;;;;4.00;2.00;;;23.00;57.60;;;;;;10526088;28;20119;-25
2023/05/25 09:13:40;;;;;;;4.50;1.55;;;22.80;58.10;;;;;;10526006;28;20054;-24
2023/05/25 09:18:43;;;;;;;3.15;1.67;;;23.30;57.10;;;;;;10529927;28;20094;-24
2023/05/25 09:23:45;;;;;;;2.78;1.40;;;23.20;57.40;;;;;;10524663;28;20055;-24
2023/05/25 09:28:48;;;;;;;3.65;1.70;;;23.40;57.20;;;;;;10528358;28;20051;-24
2023/05/25 09:33:54;;;;;;;5.50;1.83;;;23.00;57.70;;;;;;10527616;28;20468;-24
2023/05/25 09:38:56;;;;;;;3.05;1.80;;;23.10;57.40;;;;;;10517807;28;20052;-24
2023/05/25 09:43:57;;;;;;;3.22;1.60;;;23.40;57.00;;;;;;10531833;28;20056;-24
2023/05/25 09:49:00;;;;;;;;;;;23.30;57.80;;;;;;10530012;28;20048;-24
2023/05/25 09:54:03;;;;;;;2.80;1.70;;;23.50;56.60;;;;;;10540060;28;20518;-24
2023/05/25 09:59:06;;;;;;;4.95;2.17;;;22.60;59.30;;;;;;10523891;28;20454;-24
2023/05/25 10:04:09;;;;;;;4.18;1.75;;;23.00;58.40;;;;;;10527999;28;20079;-24
2023/05/25 10:09:13;;;;;;;7.82;2.28;;;22.80;59.10;;;;;;10524973;28;20101;-24
2023/05/25 10:14:19;;;;;;;8.18;2.63;;;22.50;58.30;;;;;;10516550;28;20052;-24
2023/05/25 10:19:28;;;;;;;9.85;2.33;;;22.60;59.30;;;;;;10517633;28;20080;-24
2023/05/25 10:24:34;;;;;;;7.55;2.40;;;23.40;57.60;;;;;;10513247;28;20043;-24
2023/05/25 10:29:38;;;;;;;12.32;2.47;;;23.30;57.60;;;;;;10517719;28;20054;-23
2023/05/25 10:34:42;;;;;;;6.47;2.65;;;23.30;57.40;;;;;;10522299;28;20135;-23
2023/05/25 10:39:45;;;;;;;10.23;2.55;;;23.40;56.50;;;;;;10511284;28;20131;-23
2023/05/25 10:44:48;;;;;;;6.32;2.50;;;23.60;57.00;;;;;;10508500;28;20718;-23
2023/05/25 10:49:56;;;;;;;11.75;2.80;;;23.50;57.10;;;;;;10528729;28;20127;-24
2023/05/25 10:55:03;;;;;;;8.10;2.70;;;23.60;56.80;;;;;;10519639;28;20842;-23
2023/05/25 11:00:07;;;;;;;8.07;2.05;;;23.70;56.80;;;;;;10523610;28;20114;-24
2023/05/25 11:05:32;;;;;;;6.85;2.58;;;23.10;58.10;;;;;;10525079;28;20055;-22
2023/05/25 11:10:51;;;;;;;4.30;1.85;;;22.50;58.40;;;;;;10524483;28;20131;-23
2023/05/25 11:16:16;;;;;;;5.40;2.13;;;23.00;59.00;;;;;;10505553;28;20427;-24
2023/05/25 11:21:41;;;;;;;7.32;2.30;;;22.70;59.20;;;;;;10520371;28;20051;-23
2023/05/25 11:26:58;;;;;;;3.83;1.48;;;23.00;58.30;;;;;;10510122;28;20090;-23
2023/05/25 11:32:01;;;;;;;6.47;2.67;;;22.60;58.80;;;;;;10522686;28;20048;-23
2023/05/25 11:37:05;;;;;;;6.50;2.20;;;22.70;58.50;;;;;;10538220;28;20051;-23
2023/05/25 11:42:10;;;;;;;6.10;2.38;;;23.10;58.70;;;;;;10530184;28;20036;-25
2023/05/25 11:47:13;;;;;;;4.75;1.77;;;22.50;60.50;;;;;;10535108;28;20040;-24
2023/05/25 11:52:17;;;;;;;8.63;2.45;;;22.80;59.70;;;;;;10527975;28;20072;-24
2023/05/25 11:57:21;;;;;;;7.38;2.58;;;22.30;59.20;;;;;;10530185;28;20078;-23
2023/05/25 12:02:23;;;;;;;5.97;2.22;;;21.20;60.60;;;;;;10528786;28;20044;-23
2023/05/25 12:07:28;;;;;;;5.53;2.20;;;22.00;61.60;;;;;;10536116;28;20131;-22
2023/05/25 12:12:30;;;;;;;4.38;1.95;;;23.30;58.50;;;;;;10527998;28;20044;-23
2023/05/25 12:17:33;;;;;;;;;;;23.20;58.40;;;;;;10532681;28;20087;-21
2023/05/25 12:22:36;;;;;;;8.88;2.85;;;23.40;57.70;;;;;;10524420;28;19920;-23
2023/05/25 12:27:40;;;;;;;10.30;3.05;;;23.00;57.20;;;;;;10515783;28;20131;-24
2023/05/25 12:32:54;;;;;;;9.55;2.80;;;23.60;57.00;;;;;;10533517;28;20052;-22
2023/05/25 12:38:14;;;;;;;16.65;3.65;;;22.80;58.90;;;;;;10537566;28;20576;-23
2023/05/25 12:43:16;;;;;;;14.18;3.80;;;23.00;56.30;;;;;;10520306;28;20044;-25
2023/05/25 12:48:26;;;;;;;12.60;3.40;;;23.40;57.70;;;;;;10535372;28;20048;-24
2023/05/25 12:53:30;;;;;;;11.15;3.30;;;23.40;57.30;;;;;;10525670;28;20059;-23
2023/05/25 12:58:31;;;;;;;10.45;3.13;;;23.70;56.40;;;;;;10524982;28;20105;-24
2023/05/25 13:03:33;;;;;;;10.45;3.05;;;24.10;55.30;;;;;;10524320;28;20070;-23
2023/05/25 13:08:37;;;;;;;10.35;2.20;;;24.40;56.50;;;;;;10525982;28;20040;-23
2023/05/25 13:13:39;;;;;;;10.85;2.35;;;23.10;54.20;;;;;;10528768;28;20056;-22
2023/05/25 13:18:41;;;;;;;9.35;2.80;;;21.50;58.10;;;;;;10521803;28;20541;-23
2023/05/25 13:23:44;;;;;;;15.48;3.63;;;21.70;59.80;;;;;;10517880;28;20513;-24
2023/05/25 13:28:48;;;;;;;12.68;3.03;;;23.10;56.30;;;;;;10514559;28;20040;-23
2023/05/25 13:33:50;;;;;;;12.98;2.58;;;23.40;55.70;;;;;;10525896;28;20051;-23
2023/05/25 13:38:53;;;;;;;12.48;2.95;;;23.50;55.60;;;;;;10530574;28;20516;-23
2023/05/25 13:43:55;;;;;;;7.75;3.25;;;23.80;55.20;;;;;;10529958;28;20040;-23
2023/05/25 13:48:57;;;;;;;7.93;2.75;;;23.90;55.40;;;;;;10531533;28;20132;-23
2023/05/25 13:54:00;;;;;;;15.77;2.88;;;23.90;55.40;;;;;;10530928;28;20056;-23
2023/05/25 13:59:02;;;;;;;11.00;3.33;;;23.70;55.50;;;;;;10527505;28;20507;-23
2023/05/25 14:04:04;;;;;;;14.57;3.25;;;24.00;55.10;;;;;;10530844;28;20075;-23
2023/05/25 14:09:08;;;;;;;;;;;23.80;54.00;;;;;;10514700;28;20044;-23
2023/05/25 14:14:11;;;;;;;14.48;3.58;;;23.90;54.00;;;;;;10515579;28;19973;-23
2023/05/25 14:19:13;;;;;;;10.15;3.85;;;24.00;54.50;;;;;;10528646;28;20117;-23
2023/05/25 14:24:17;;;;;;;10.95;3.08;;;23.10;56.10;;;;;;10527037;28;20566;-23
2023/05/25 14:29:18;;;;;;;11.35;3.08;;;23.80;55.60;;;;;;10525138;28;20052;-23
2023/05/25 14:34:20;;;;;;;;;;;24.30;54.20;;;;;;10523198;28;20044;-24
2023/05/25 14:39:23;;;;;;;18.38;5.90;;;23.80;54.50;;;;;;10515010;28;20267;-23
2023/05/25 14:44:25;;;;;;;17.20;5.70;;;24.20;54.50;;;;;;10515703;28;20489;-23
2023/05/25 14:49:27;;;;;;;;;;;24.40;53.90;;;;;;10530862;28;20139;-23
2023/05/25 14:54:30;;;;;;;22.83;6.57;;;24.50;53.90;;;;;;10523273;28;19997;-24
2023/05/25 14:59:32;;;;;;;21.83;6.40;;;24.50;53.70;;;;;;10521467;28;20071;-23
2023/05/25 15:04:33;;;;;;;;;;;24.70;53.40;;;;;;10523447;28;20064;-23
2023/05/25 15:09:36;;;;;;;15.98;5.50;;;24.80;53.20;;;;;;10526135;28;19978;-23
2023/05/25 15:14:39;;;;;;;17.85;4.85;;;24.70;53.30;;;;;;10516755;28;20142;-23
2023/05/25 15:19:41;;;;;;;14.55;4.82;;;24.70;52.90;;;;;;10527715;28;20050;-25
2023/05/25 15:24:44;;;;;;;;;;;25.00;52.60;;;;;;10516019;28;20076;-23
2023/05/25 15:29:46;;;;;;;13.13;4.53;;;25.00;52.30;;;;;;10526031;28;19924;-23
2023/05/25 15:34:47;;;;;;;;;;;25.10;52.10;;;;;;10517256;28;20150;-24
2023/05/25 15:39:51;;;;;;;14.45;4.18;;;25.20;51.90;;;;;;10522016;28;20027;-24
2023/05/25 15:44:52;;;;;;;20.80;4.10;;;25.20;51.80;;;;;;10512068;28;20076;-24
2023/05/25 15:49:54;;;;;;;;;;;25.40;52.00;;;;;;10515486;28;20825;-24
2023/05/25 15:54:57;;;;;;;12.07;3.65;;;25.40;51.90;;;;;;10505337;28;19931;-23
2023/05/25 15:59:59;;;;;;;14.68;3.17;;;25.50;52.00;;;;;;10511543;28;20044;-24
2023/05/25 16:05:01;;;;;;;13.77;3.40;;;25.70;52.50;;;;;;10528900;28;20473;-24
2023/05/25 16:10:05;;;;;;;11.23;3.58;;;25.60;51.90;;;;;;10521442;28;20138;-24
2023/05/25 16:15:08;;;;;;;14.35;3.45;;;25.70;51.60;;;;;;10522760;28;20493;-24
2023/05/25 16:20:10;;;;;;;11.45;3.80;;;25.90;51.20;;;;;;10516864;28;20098;-24
2023/05/25 16:25:13;;;;;;;15.95;3.63;;;25.80;51.30;;;;;;10520390;28;20101;-24
2023/05/25 16:30:15;;;;;;;10.55;3.10;;;25.80;51.50;;;;;;10523491;28;20044;-24
2023/05/25 16:35:17;;;;;;;13.55;3.08;;;25.90;51.40;;;;;;10528723;28;20117;-24
2023/05/25 16:40:20;;;;;;;;;;;26.00;51.60;;;;;;10531046;28;20142;-24
2023/05/25 16:45:22;;;;;;;14.80;3.55;;;26.00;51.30;;;;;;10535829;28;20022;-24
2023/05/25 16:50:24;;;;;;;13.45;3.15;;;26.00;51.00;;;;;;10529016;28;20040;-24
2023/05/25 16:55:27;;;;;;;11.90;3.50;;;26.20;51.10;;;;;;10534001;28;20134;-24
2023/05/25 17:00:29;;;;;;;8.70;2.55;;;26.20;51.40;;;;;;10529919;28;20048;-24
2023/05/25 17:05:30;;;;;;;11.88;3.13;;;26.40;51.50;;;;;;10533378;28;20078;-24
2023/05/25 17:10:34;;;;;;;11.70;3.10;;;26.40;51.70;;;;;;10539831;28;20484;-24
2023/05/25 17:15:36;;;;;;;9.27;2.88;;;26.60;51.70;;;;;;10522068;27;20048;-25
2023/05/25 17:20:37;;;;;;;8.38;2.30;;;26.70;51.90;;;;;;10537141;28;20489;-25
2023/05/25 17:25:41;;;;;;;8.30;2.85;;;26.60;51.50;;;;;;10515668;28;20066;-24
2023/05/25 17:30:43;;;;;;;9.88;2.55;;;26.80;51.10;;;;;;10530104;28;20044;-24
2023/05/25 17:35:44;;;;;;;10.57;2.30;;;26.80;51.30;;;;;;10527985;28;20941;-23
2023/05/25 17:40:48;;;;;;;6.57;2.53;;;26.90;51.10;;;;;;10528875;28;20051;-24
2023/05/25 17:45:51;;;;;;;13.18;2.60;;;27.00;52.90;;;;;;10514913;28;20121;-24
2023/05/25 17:50:53;;;;;;;10.20;3.22;;;27.10;52.00;;;;;;10520299;28;20040;-24
2023/05/25 17:55:56;;;;;;;7.43;2.45;;;27.00;51.70;;;;;;10525553;28;20052;-24
2023/05/25 18:00:58;;;;;;;12.07;3.03;;;26.90;51.90;;;;;;10523869;28;20768;-24
2023/05/25 18:06:00;;;;;;;9.05;2.70;;;26.80;51.80;;;;;;10519539;28;20126;-23
2023/05/25 18:11:04;;;;;;;11.80;4.90;;;26.90;51.60;;;;;;10527033;28;20504;-22
2023/05/25 18:16:06;;;;;;;11.40;6.43;;;26.90;51.20;;;;;;10530295;28;20062;-24
2023/05/25 18:21:08;;;;;;;9.20;2.30;;;26.90;51.10;;;;;;10524938;28;20047;-24
2023/05/25 18:26:11;;;;;;;9.35;4.18;;;26.80;51.00;;;;;;10514818;28;20131;-23
2023/05/25 18:31:13;;;;;;;14.73;3.28;;;26.80;51.00;;;;;;10514180;28;20656;-24
2023/05/25 18:36:15;;;;;;;15.30;3.47;;;26.20;49.70;;;;;;10513476;28;20052;-23
2023/05/25 18:41:19;;;;;;;13.55;2.97;;;26.50;50.10;;;;;;10523638;28;20409;-24
2023/05/25 18:46:21;;;;;;;13.85;2.97;;;26.50;50.30;;;;;;10524458;28;20098;-24
2023/05/25 18:51:24;;;;;;;13.25;2.78;;;26.60;50.70;;;;;;10527914;28;20040;-24
2023/05/25 18:56:27;;;;;;;12.13;3.17;;;26.50;50.80;;;;;;10530031;28;20060;-24
2023/05/25 19:01:29;;;;;;;13.73;3.15;;;26.60;50.60;;;;;;10521927;28;20480;-24
2023/05/25 19:06:32;;;;;;;13.30;2.97;;;26.50;50.80;;;;;;10512456;28;20051;-24
2023/05/25 19:11:35;;;;;;;12.95;2.90;;;26.40;50.80;;;;;;10526764;28;20055;-24
2023/05/25 19:16:37;;;;;;;12.30;2.70;;;26.40;50.70;;;;;;10519981;28;20044;-23
2023/05/25 19:21:38;;;;;;;10.60;2.70;;;26.40;50.70;;;;;;10517316;28;20471;-23
2023/05/25 19:26:42;;;;;;;15.90;3.17;;;26.40;50.80;;;;;;10520427;28;20071;-24
2023/05/25 19:31:43;;;;;;;20.85;3.47;;;26.40;50.80;;;;;;10518952;28;20062;-25
2023/05/25 19:36:45;;;;;;;17.77;3.22;;;26.30;50.80;;;;;;10522669;28;20052;-23
2023/05/25 19:41:48;;;;;;;17.90;4.22;;;26.30;50.80;;;;;;10526965;28;20484;-24
2023/05/25 19:46:50;;;;;;;23.30;4.28;;;26.20;50.80;;;;;;10520930;28;20135;-23
2023/05/25 19:51:52;;;;;;;21.02;3.65;;;26.10;50.90;;;;;;10528039;28;20068;-23
2023/05/25 19:56:56;;;;;;;19.20;3.55;;;26.10;50.90;;;;;;10526602;28;20083;-23
2023/05/25 20:01:57;;;;;;;21.33;4.20;;;26.00;50.80;;;;;;10534282;28;20451;-23
2023/05/25 20:06:59;;;;;;;18.73;4.13;;;26.00;50.80;;;;;;10524063;28;20457;-23
2023/05/25 20:12:02;;;;;;;15.77;4.05;;;26.00;50.80;;;;;;10530500;28;20051;-24
2023/05/25 20:17:04;;;;;;;15.95;3.65;;;25.90;50.80;;;;;;10523280;28;20827;-23
2023/05/25 20:22:07;;;;;;;21.30;3.75;;;25.90;50.70;;;;;;10530574;28;20131;-22
2023/05/25 20:27:10;;;;;;;12.63;2.88;;;25.80;50.70;;;;;;10530210;28;20116;-23
2023/05/25 20:32:12;;;;;;;14.77;3.15;;;25.70;50.60;;;;;;10529048;28;20047;-23
2023/05/25 20:37:13;;;;;;;;;;;25.60;50.60;;;;;;10527780;28;20052;-22
2023/05/25 20:42:17;;;;;;;14.20;3.10;;;25.60;50.80;;;;;;10536216;28;19920;-23
2023/05/25 20:47:18;;;;;;;13.52;3.70;;;25.50;51.10;;;;;;10534029;28;20065;-31
2023/05/25 20:52:20;;;;;;;15.13;3.00;;;25.50;51.80;;;;;;10524594;28;20067;-24
2023/05/25 20:57:24;;;;;;;9.52;2.58;;;25.40;51.30;;;;;;10521029;28;20063;-24
2023/05/25 21:02:27;;;;;;;7.75;2.58;;;25.40;51.40;;;;;;10518827;28;20036;-23
2023/05/25 21:07:29;;;;;;;14.73;4.57;;;25.30;51.40;;;;;;10523556;28;20670;-24
2023/05/25 21:12:32;;;;;;;9.90;2.78;;;25.30;51.50;;;;;;10534965;28;20083;-23
2023/05/25 21:17:34;;;;;;;7.40;2.90;;;25.30;51.60;;;;;;10518224;28;20128;-24
2023/05/25 21:22:36;;;;;;;12.20;3.47;;;25.20;51.60;;;;;;10533935;28;20044;-24
2023/05/25 21:27:39;;;;;;;11.85;2.50;;;25.20;51.60;;;;;;10526424;28;20044;-24
2023/05/25 21:32:41;;;;;;;11.00;2.85;;;25.10;51.60;;;;;;10519521;28;20072;-24
2023/05/25 21:37:43;;;;;;;;;;;25.00;51.60;;;;;;10527217;28;20722;-24
2023/05/25 21:42:46;;;;;;;11.40;2.83;;;24.90;51.70;;;;;;10523582;28;19931;-24
2023/05/25 21:47:48;;;;;;;6.25;3.08;;;24.90;51.90;;;;;;10514146;28;20128;-23
2023/05/25 21:52:49;;;;;;;10.00;3.10;;;24.70;51.70;;;;;;10526521;28;20133;-24
2023/05/25 21:57:52;;;;;;;;;;;24.70;51.90;;;;;;10523749;28;20144;-23
2023/05/25 22:02:54;;;;;;;9.35;2.58;;;24.70;51.90;;;;;;10525400;28;20014;-23
2023/05/25 22:07:56;;;;;;;;;;;24.60;52.10;;;;;;10527059;28;20071;-23
2023/05/25 22:12:59;;;;;;;7.55;2.60;;;24.60;52.10;;;;;;10528616;28;19920;-24
2023/05/25 22:18:01;;;;;;;6.97;2.60;;;24.50;52.10;;;;;;10527241;28;20044;-23
2023/05/25 22:23:03;;;;;;;7.57;3.10;;;24.30;52.00;;;;;;10525891;28;20040;-24
2023/05/25 22:28:06;;;;;;;;;;;24.30;52.20;;;;;;10526387;28;20073;-24
2023/05/25 22:33:07;;;;;;;8.32;2.70;;;24.30;52.20;;;;;;10521885;28;19920;-22
2023/05/25 22:38:09;;;;;;;9.80;3.08;;;24.20;52.00;;;;;;10524187;28;20528;-23
2023/05/25 22:43:13;;;;;;;;;;;24.20;52.20;;;;;;10525425;28;20101;-23
2023/05/25 22:48:15;;;;;;;9.40;3.20;;;24.10;52.30;;;;;;10529502;28;19920;-23
2023/05/25 22:53:17;;;;;;;9.85;3.78;;;24.10;52.30;;;;;;10526972;28;20499;-23
2023/05/25 22:58:20;;;;;;;;;;;24.00;52.40;;;;;;10510927;28;20485;-24
2023/05/25 23:03:22;;;;;;;7.35;2.72;;;23.90;52.30;;;;;;10520776;28;19924;-24
2023/05/25 23:08:24;;;;;;;9.63;3.55;;;23.90;52.50;;;;;;10521968;28;20056;-23
2023/05/25 23:13:28;;;;;;;11.35;4.25;;;23.80;52.20;;;;;;10517538;28;20135;-23
2023/05/25 23:18:30;;;;;;;8.63;2.63;;;23.80;53.20;;;;;;10523015;28;20059;-23
2023/05/25 23:23:31;;;;;;;;;;;23.70;52.50;;;;;;10521930;28;20105;-25
2023/05/25 23:28:34;;;;;;;9.23;2.90;;;23.70;52.50;;;;;;10533129;28;20436;-23
2023/05/25 23:33:36;;;;;;;9.70;3.08;;;23.60;52.40;;;;;;10537922;28;20530;-23
2023/05/25 23:38:38;;;;;;;8.77;4.03;;;23.50;52.60;;;;;;10531172;28;20079;-22
2023/05/25 23:43:41;;;;;;;9.93;4.20;;;23.50;52.40;;;;;;10524657;28;20105;-24
2023/05/25 23:48:44;;;;;;;9.32;3.33;;;23.50;52.70;;;;;;10524396;28;20101;-24
2023/05/25 23:53:45;;;;;;;9.05;3.72;;;23.40;52.60;;;;;;10533472;28;20150;-23
2023/05/25 23:58:49;;;;;;;12.00;4.35;;;23.40;52.20;;;;;;10532489;28;20048;-23
